sensor_id;sensor_type;location;lat;lon;timestamp;P1;durP1;ratioP1;P2;durP2;ratioP2
79330;SDS011;68797;49.782;19.054;2023-07-22T00:00:23;5.57;;;3.08;;
79330;SDS011;68797;49.782;19.054;2023-07-22T00:03:19;5.43;;;3.65;;
79330;SDS011;68797;49.782;19.054;2023-07-22T00:05:45;5.68;;;3.53;;
79330;SDS011;68797;49.782;19.054;2023-07-22T00:08:26;5.82;;;4.43;;
79330;SDS011;68797;49.782;19.054;2023-07-22T00:10:58;7.88;;;5.07;;
79330;SDS011;68797;49.782;19.054;2023-07-22T00:13:30;7.15;;;5.50;;
79330;SDS011;68797;49.782;19.054;2023-07-22T00:16:12;8.52;;;5.40;;
79330;SDS011;68797;49.782;19.054;2023-07-22T00:21:30;7.45;;;6.30;;
79330;SDS011;68797;49.782;19.054;2023-07-22T00:23:58;9.48;;;5.57;;
79330;SDS011;68797;49.782;19.054;2023-07-22T00:26:25;6.72;;;5.25;;
79330;SDS011;68797;49.782;19.054;2023-07-22T00:28:57;7.78;;;5.25;;
79330;SDS011;68797;49.782;19.054;2023-07-22T00:31:32;10.38;;;5.57;;
79330;SDS011;68797;49.782;19.054;2023-07-22T00:34:14;7.65;;;5.53;;
79330;SDS011;68797;49.782;19.054;2023-07-22T00:36:50;7.53;;;5.40;;
79330;SDS011;68797;49.782;19.054;2023-07-22T00:39:32;8.15;;;5.00;;
79330;SDS011;68797;49.782;19.054;2023-07-22T00:42:10;9.60;;;5.30;;
79330;SDS011;68797;49.782;19.054;2023-07-22T00:44:38;9.93;;;5.25;;
79330;SDS011;68797;49.782;19.054;2023-07-22T00:47:08;8.68;;;5.18;;
79330;SDS011;68797;49.782;19.054;2023-07-22T00:49:39;7.13;;;4.88;;
79330;SDS011;68797;49.782;19.054;2023-07-22T00:52:14;7.40;;;4.80;;
79330;SDS011;68797;49.782;19.054;2023-07-22T00:54:50;8.32;;;4.75;;
79330;SDS011;68797;49.782;19.054;2023-07-22T00:57:24;7.15;;;4.60;;
79330;SDS011;68797;49.782;19.054;2023-07-22T01:00:02;10.57;;;4.93;;
79330;SDS011;68797;49.782;19.054;2023-07-22T01:02:35;6.45;;;4.80;;
79330;SDS011;68797;49.782;19.054;2023-07-22T01:05:03;9.73;;;5.38;;
79330;SDS011;68797;49.782;19.054;2023-07-22T01:07:35;8.48;;;5.10;;
79330;SDS011;68797;49.782;19.054;2023-07-22T01:10:07;6.82;;;4.82;;
79330;SDS011;68797;49.782;19.054;2023-07-22T01:12:39;5.93;;;4.50;;
79330;SDS011;68797;49.782;19.054;2023-07-22T01:15:08;7.80;;;4.63;;
79330;SDS011;68797;49.782;19.054;2023-07-22T01:17:37;6.75;;;4.43;;
79330;SDS011;68797;49.782;19.054;2023-07-22T01:20:06;7.82;;;4.40;;
79330;SDS011;68797;49.782;19.054;2023-07-22T01:22:39;6.15;;;4.32;;
79330;SDS011;68797;49.782;19.054;2023-07-22T01:25:40;6.45;;;4.25;;
79330;SDS011;68797;49.782;19.054;2023-07-22T01:28:11;6.13;;;4.28;;
79330;SDS011;68797;49.782;19.054;2023-07-22T01:30:47;6.32;;;4.47;;
79330;SDS011;68797;49.782;19.054;2023-07-22T01:33:19;7.28;;;4.90;;
79330;SDS011;68797;49.782;19.054;2023-07-22T01:36:05;6.00;;;4.30;;
79330;SDS011;68797;49.782;19.054;2023-07-22T01:38:38;6.22;;;4.43;;
79330;SDS011;68797;49.782;19.054;2023-07-22T01:41:08;6.95;;;4.25;;
79330;SDS011;68797;49.782;19.054;2023-07-22T01:43:38;8.63;;;5.45;;
79330;SDS011;68797;49.782;19.054;2023-07-22T01:46:07;6.53;;;4.57;;
79330;SDS011;68797;49.782;19.054;2023-07-22T01:48:42;6.40;;;4.90;;
79330;SDS011;68797;49.782;19.054;2023-07-22T01:51:10;5.68;;;4.25;;
79330;SDS011;68797;49.782;19.054;2023-07-22T01:53:46;7.20;;;4.57;;
79330;SDS011;68797;49.782;19.054;2023-07-22T01:56:24;7.45;;;4.50;;
79330;SDS011;68797;49.782;19.054;2023-07-22T01:58:53;5.95;;;4.20;;
79330;SDS011;68797;49.782;19.054;2023-07-22T02:01:42;6.40;;;4.38;;
79330;SDS011;68797;49.782;19.054;2023-07-22T02:04:09;6.88;;;4.93;;
79330;SDS011;68797;49.782;19.054;2023-07-22T02:06:43;7.45;;;4.75;;
79330;SDS011;68797;49.782;19.054;2023-07-22T02:09:13;5.88;;;4.20;;
79330;SDS011;68797;49.782;19.054;2023-07-22T02:11:43;6.95;;;4.20;;
79330;SDS011;68797;49.782;19.054;2023-07-22T02:14:13;5.78;;;4.28;;
79330;SDS011;68797;49.782;19.054;2023-07-22T02:16:46;5.22;;;4.03;;
79330;SDS011;68797;49.782;19.054;2023-07-22T02:19:16;7.25;;;4.50;;
79330;SDS011;68797;49.782;19.054;2023-07-22T02:21:44;5.70;;;4.20;;
79330;SDS011;68797;49.782;19.054;2023-07-22T02:24:12;5.75;;;4.53;;
79330;SDS011;68797;49.782;19.054;2023-07-22T02:26:44;6.43;;;4.40;;
79330;SDS011;68797;49.782;19.054;2023-07-22T02:29:16;5.22;;;4.43;;
79330;SDS011;68797;49.782;19.054;2023-07-22T02:31:51;7.63;;;4.28;;
79330;SDS011;68797;49.782;19.054;2023-07-22T02:34:22;5.22;;;4.00;;
79330;SDS011;68797;49.782;19.054;2023-07-22T02:36:59;6.05;;;3.97;;
79330;SDS011;68797;49.782;19.054;2023-07-22T02:39:38;6.07;;;4.30;;
79330;SDS011;68797;49.782;19.054;2023-07-22T02:42:14;8.80;;;4.20;;
79330;SDS011;68797;49.782;19.054;2023-07-22T02:44:41;6.32;;;4.60;;
79330;SDS011;68797;49.782;19.054;2023-07-22T02:47:11;5.40;;;4.03;;
79330;SDS011;68797;49.782;19.054;2023-07-22T02:49:42;6.28;;;4.53;;
79330;SDS011;68797;49.782;19.054;2023-07-22T02:52:09;5.68;;;4.05;;
79330;SDS011;68797;49.782;19.054;2023-07-22T02:54:54;5.35;;;4.28;;
79330;SDS011;68797;49.782;19.054;2023-07-22T02:57:43;5.82;;;4.32;;
79330;SDS011;68797;49.782;19.054;2023-07-22T03:00:13;5.50;;;3.92;;
79330;SDS011;68797;49.782;19.054;2023-07-22T03:02:50;8.27;;;4.30;;
79330;SDS011;68797;49.782;19.054;2023-07-22T03:05:30;9.18;;;5.53;;
79330;SDS011;68797;49.782;19.054;2023-07-22T03:08:05;6.65;;;4.43;;
79330;SDS011;68797;49.782;19.054;2023-07-22T03:10:42;4.85;;;3.70;;
79330;SDS011;68797;49.782;19.054;2023-07-22T03:13:17;6.07;;;4.38;;
79330;SDS011;68797;49.782;19.054;2023-07-22T03:15:44;6.38;;;4.00;;
79330;SDS011;68797;49.782;19.054;2023-07-22T03:18:13;6.00;;;4.30;;
79330;SDS011;68797;49.782;19.054;2023-07-22T03:20:41;5.13;;;3.92;;
79330;SDS011;68797;49.782;19.054;2023-07-22T03:23:10;5.78;;;3.70;;
79330;SDS011;68797;49.782;19.054;2023-07-22T03:25:44;6.63;;;4.20;;
79330;SDS011;68797;49.782;19.054;2023-07-22T03:28:17;6.30;;;4.20;;
79330;SDS011;68797;49.782;19.054;2023-07-22T03:30:52;5.70;;;4.45;;
79330;SDS011;68797;49.782;19.054;2023-07-22T03:33:28;5.75;;;4.40;;
79330;SDS011;68797;49.782;19.054;2023-07-22T03:35:58;5.65;;;4.35;;
79330;SDS011;68797;49.782;19.054;2023-07-22T03:38:28;6.60;;;4.88;;
79330;SDS011;68797;49.782;19.054;2023-07-22T03:40:58;9.00;;;4.68;;
79330;SDS011;68797;49.782;19.054;2023-07-22T03:43:25;7.80;;;4.65;;
79330;SDS011;68797;49.782;19.054;2023-07-22T03:45:53;6.13;;;4.40;;
79330;SDS011;68797;49.782;19.054;2023-07-22T03:48:28;6.50;;;4.65;;
79330;SDS011;68797;49.782;19.054;2023-07-22T03:50:56;8.85;;;5.47;;
79330;SDS011;68797;49.782;19.054;2023-07-22T03:53:24;6.25;;;5.35;;
79330;SDS011;68797;49.782;19.054;2023-07-22T03:55:52;8.52;;;5.53;;
79330;SDS011;68797;49.782;19.054;2023-07-22T03:58:21;7.80;;;5.45;;
79330;SDS011;68797;49.782;19.054;2023-07-22T04:00:51;6.78;;;5.25;;
79330;SDS011;68797;49.782;19.054;2023-07-22T04:03:22;7.80;;;4.82;;
79330;SDS011;68797;49.782;19.054;2023-07-22T04:05:54;7.93;;;4.93;;
79330;SDS011;68797;49.782;19.054;2023-07-22T04:08:26;6.35;;;4.32;;
79330;SDS011;68797;49.782;19.054;2023-07-22T04:10:56;6.15;;;4.25;;
79330;SDS011;68797;49.782;19.054;2023-07-22T04:13:24;6.20;;;4.18;;
79330;SDS011;68797;49.782;19.054;2023-07-22T04:15:54;5.00;;;3.70;;
79330;SDS011;68797;49.782;19.054;2023-07-22T04:18:25;6.93;;;4.60;;
79330;SDS011;68797;49.782;19.054;2023-07-22T04:21:00;6.40;;;3.65;;
79330;SDS011;68797;49.782;19.054;2023-07-22T04:23:37;6.47;;;3.75;;
79330;SDS011;68797;49.782;19.054;2023-07-22T04:26:05;4.25;;;3.40;;
79330;SDS011;68797;49.782;19.054;2023-07-22T04:28:36;3.75;;;3.00;;
79330;SDS011;68797;49.782;19.054;2023-07-22T04:31:18;5.50;;;3.92;;
79330;SDS011;68797;49.782;19.054;2023-07-22T04:33:52;4.20;;;3.70;;
79330;SDS011;68797;49.782;19.054;2023-07-22T04:36:24;6.82;;;3.53;;
79330;SDS011;68797;49.782;19.054;2023-07-22T04:38:51;4.20;;;3.33;;
79330;SDS011;68797;49.782;19.054;2023-07-22T04:41:20;7.78;;;3.78;;
79330;SDS011;68797;49.782;19.054;2023-07-22T04:43:54;5.05;;;3.40;;
79330;SDS011;68797;49.782;19.054;2023-07-22T04:46:28;5.10;;;3.42;;
79330;SDS011;68797;49.782;19.054;2023-07-22T04:48:58;7.45;;;4.18;;
79330;SDS011;68797;49.782;19.054;2023-07-22T04:51:29;6.32;;;3.17;;
79330;SDS011;68797;49.782;19.054;2023-07-22T04:54:00;5.35;;;3.92;;
79330;SDS011;68797;49.782;19.054;2023-07-22T04:56:29;4.95;;;4.03;;
79330;SDS011;68797;49.782;19.054;2023-07-22T04:58:56;5.65;;;3.88;;
79330;SDS011;68797;49.782;19.054;2023-07-22T05:01:37;6.85;;;3.90;;
79330;SDS011;68797;49.782;19.054;2023-07-22T05:04:09;5.05;;;3.55;;
79330;SDS011;68797;49.782;19.054;2023-07-22T05:06:45;8.27;;;4.82;;
79330;SDS011;68797;49.782;19.054;2023-07-22T05:09:17;5.88;;;4.00;;
79330;SDS011;68797;49.782;19.054;2023-07-22T05:11:47;7.60;;;3.95;;
79330;SDS011;68797;49.782;19.054;2023-07-22T05:14:14;10.05;;;4.55;;
79330;SDS011;68797;49.782;19.054;2023-07-22T05:19:09;7.43;;;4.15;;
79330;SDS011;68797;49.782;19.054;2023-07-22T05:21:38;8.15;;;4.35;;
79330;SDS011;68797;49.782;19.054;2023-07-22T05:24:08;8.68;;;4.18;;
79330;SDS011;68797;49.782;19.054;2023-07-22T05:26:41;6.40;;;4.22;;
79330;SDS011;68797;49.782;19.054;2023-07-22T05:29:08;7.38;;;4.47;;
79330;SDS011;68797;49.782;19.054;2023-07-22T05:31:35;8.93;;;4.57;;
79330;SDS011;68797;49.782;19.054;2023-07-22T05:34:08;6.40;;;4.15;;
79330;SDS011;68797;49.782;19.054;2023-07-22T05:36:44;8.85;;;5.53;;
79330;SDS011;68797;49.782;19.054;2023-07-22T05:39:16;5.90;;;4.10;;
79330;SDS011;68797;49.782;19.054;2023-07-22T05:41:46;5.75;;;4.32;;
79330;SDS011;68797;49.782;19.054;2023-07-22T05:44:13;8.55;;;4.20;;
79330;SDS011;68797;49.782;19.054;2023-07-22T05:46:40;6.88;;;4.38;;
79330;SDS011;68797;49.782;19.054;2023-07-22T05:49:14;7.35;;;4.47;;
79330;SDS011;68797;49.782;19.054;2023-07-22T05:51:42;6.53;;;4.00;;
79330;SDS011;68797;49.782;19.054;2023-07-22T05:54:12;8.55;;;4.32;;
79330;SDS011;68797;49.782;19.054;2023-07-22T05:56:44;6.38;;;3.97;;
79330;SDS011;68797;49.782;19.054;2023-07-22T05:59:11;5.15;;;3.42;;
79330;SDS011;68797;49.782;19.054;2023-07-22T06:01:41;8.35;;;4.50;;
79330;SDS011;68797;49.782;19.054;2023-07-22T06:04:14;6.45;;;4.03;;
79330;SDS011;68797;49.782;19.054;2023-07-22T06:07:03;5.25;;;3.78;;
79330;SDS011;68797;49.782;19.054;2023-07-22T06:09:31;5.85;;;4.40;;
79330;SDS011;68797;49.782;19.054;2023-07-22T06:12:04;6.18;;;4.00;;
79330;SDS011;68797;49.782;19.054;2023-07-22T06:14:38;5.50;;;4.07;;
79330;SDS011;68797;49.782;19.054;2023-07-22T06:17:08;5.70;;;3.50;;
79330;SDS011;68797;49.782;19.054;2023-07-22T06:19:36;7.32;;;3.85;;
79330;SDS011;68797;49.782;19.054;2023-07-22T06:22:06;9.55;;;3.70;;
79330;SDS011;68797;49.782;19.054;2023-07-22T06:24:33;5.45;;;3.92;;
79330;SDS011;68797;49.782;19.054;2023-07-22T06:27:16;6.55;;;3.72;;
79330;SDS011;68797;49.782;19.054;2023-07-22T06:29:46;6.82;;;4.13;;
79330;SDS011;68797;49.782;19.054;2023-07-22T06:32:18;7.05;;;4.10;;
79330;SDS011;68797;49.782;19.054;2023-07-22T06:34:51;5.00;;;3.40;;
79330;SDS011;68797;49.782;19.054;2023-07-22T06:37:21;5.68;;;3.60;;
79330;SDS011;68797;49.782;19.054;2023-07-22T06:39:50;6.40;;;3.90;;
79330;SDS011;68797;49.782;19.054;2023-07-22T06:44:53;5.50;;;3.88;;
79330;SDS011;68797;49.782;19.054;2023-07-22T06:47:19;6.65;;;4.32;;
79330;SDS011;68797;49.782;19.054;2023-07-22T06:49:52;6.45;;;3.95;;
79330;SDS011;68797;49.782;19.054;2023-07-22T06:52:25;9.25;;;4.82;;
79330;SDS011;68797;49.782;19.054;2023-07-22T06:54:55;4.63;;;3.80;;
79330;SDS011;68797;49.782;19.054;2023-07-22T06:57:22;6.10;;;3.85;;
79330;SDS011;68797;49.782;19.054;2023-07-22T06:59:55;9.75;;;4.32;;
79330;SDS011;68797;49.782;19.054;2023-07-22T07:02:23;7.13;;;3.55;;
79330;SDS011;68797;49.782;19.054;2023-07-22T07:04:55;9.50;;;4.32;;
79330;SDS011;68797;49.782;19.054;2023-07-22T07:07:22;6.60;;;4.00;;
79330;SDS011;68797;49.782;19.054;2023-07-22T07:09:55;6.72;;;3.80;;
79330;SDS011;68797;49.782;19.054;2023-07-22T07:15:14;8.40;;;3.80;;
79330;SDS011;68797;49.782;19.054;2023-07-22T07:17:48;7.22;;;4.03;;
79330;SDS011;68797;49.782;19.054;2023-07-22T07:20:17;7.00;;;3.67;;
79330;SDS011;68797;49.782;19.054;2023-07-22T07:22:55;6.63;;;3.72;;
79330;SDS011;68797;49.782;19.054;2023-07-22T07:25:32;7.28;;;4.13;;
79330;SDS011;68797;49.782;19.054;2023-07-22T07:28:03;7.63;;;3.60;;
79330;SDS011;68797;49.782;19.054;2023-07-22T07:30:32;7.30;;;3.58;;
79330;SDS011;68797;49.782;19.054;2023-07-22T07:33:05;7.60;;;3.55;;
79330;SDS011;68797;49.782;19.054;2023-07-22T07:35:45;5.80;;;3.55;;
79330;SDS011;68797;49.782;19.054;2023-07-22T07:38:16;8.90;;;3.97;;
79330;SDS011;68797;49.782;19.054;2023-07-22T07:40:51;5.40;;;3.75;;
79330;SDS011;68797;49.782;19.054;2023-07-22T07:43:30;5.28;;;3.50;;
79330;SDS011;68797;49.782;19.054;2023-07-22T07:48:57;6.97;;;3.97;;
79330;SDS011;68797;49.782;19.054;2023-07-22T07:51:38;5.07;;;3.30;;
79330;SDS011;68797;49.782;19.054;2023-07-22T07:54:11;4.80;;;3.42;;
79330;SDS011;68797;49.782;19.054;2023-07-22T07:56:43;5.93;;;3.28;;
79330;SDS011;68797;49.782;19.054;2023-07-22T07:59:17;5.93;;;3.42;;
79330;SDS011;68797;49.782;19.054;2023-07-22T08:01:48;9.18;;;3.85;;
79330;SDS011;68797;49.782;19.054;2023-07-22T08:04:25;7.53;;;3.72;;
79330;SDS011;68797;49.782;19.054;2023-07-22T08:06:57;7.70;;;4.22;;
79330;SDS011;68797;49.782;19.054;2023-07-22T08:09:31;6.18;;;3.45;;
79330;SDS011;68797;49.782;19.054;2023-07-22T08:12:20;5.97;;;3.63;;
79330;SDS011;68797;49.782;19.054;2023-07-22T08:14:54;6.30;;;3.92;;
79330;SDS011;68797;49.782;19.054;2023-07-22T08:17:24;4.75;;;3.42;;
79330;SDS011;68797;49.782;19.054;2023-07-22T08:19:56;7.13;;;3.83;;
79330;SDS011;68797;49.782;19.054;2023-07-22T08:22:26;4.72;;;4.00;;
79330;SDS011;68797;49.782;19.054;2023-07-22T08:24:55;5.18;;;3.90;;
79330;SDS011;68797;49.782;19.054;2023-07-22T08:27:32;4.57;;;3.60;;
79330;SDS011;68797;49.782;19.054;2023-07-22T08:30:03;5.55;;;3.78;;
79330;SDS011;68797;49.782;19.054;2023-07-22T08:32:37;6.20;;;3.55;;
79330;SDS011;68797;49.782;19.054;2023-07-22T08:35:08;4.03;;;3.22;;
79330;SDS011;68797;49.782;19.054;2023-07-22T08:37:40;7.85;;;4.13;;
79330;SDS011;68797;49.782;19.054;2023-07-22T08:40:12;5.82;;;3.92;;
79330;SDS011;68797;49.782;19.054;2023-07-22T08:42:46;8.73;;;3.90;;
79330;SDS011;68797;49.782;19.054;2023-07-22T08:45:17;4.15;;;3.63;;
79330;SDS011;68797;49.782;19.054;2023-07-22T08:47:59;5.55;;;3.42;;
79330;SDS011;68797;49.782;19.054;2023-07-22T08:53:40;5.72;;;3.28;;
79330;SDS011;68797;49.782;19.054;2023-07-22T08:56:12;4.45;;;3.50;;
79330;SDS011;68797;49.782;19.054;2023-07-22T08:58:55;6.40;;;3.53;;
79330;SDS011;68797;49.782;19.054;2023-07-22T09:01:30;5.15;;;3.35;;
79330;SDS011;68797;49.782;19.054;2023-07-22T09:04:07;5.30;;;4.15;;
79330;SDS011;68797;49.782;19.054;2023-07-22T09:06:38;6.40;;;3.75;;
79330;SDS011;68797;49.782;19.054;2023-07-22T09:09:14;4.40;;;3.15;;
79330;SDS011;68797;49.782;19.054;2023-07-22T09:11:47;5.25;;;3.00;;
79330;SDS011;68797;49.782;19.054;2023-07-22T09:14:22;5.43;;;3.53;;
79330;SDS011;68797;49.782;19.054;2023-07-22T09:17:01;7.97;;;3.53;;
79330;SDS011;68797;49.782;19.054;2023-07-22T09:19:36;5.43;;;3.50;;
79330;SDS011;68797;49.782;19.054;2023-07-22T09:22:08;5.20;;;3.70;;
79330;SDS011;68797;49.782;19.054;2023-07-22T09:24:38;7.03;;;3.20;;
79330;SDS011;68797;49.782;19.054;2023-07-22T09:27:10;5.55;;;3.35;;
79330;SDS011;68797;49.782;19.054;2023-07-22T09:29:47;5.55;;;2.85;;
79330;SDS011;68797;49.782;19.054;2023-07-22T09:32:25;4.97;;;3.65;;
79330;SDS011;68797;49.782;19.054;2023-07-22T09:35:11;5.30;;;3.42;;
79330;SDS011;68797;49.782;19.054;2023-07-22T09:37:42;5.10;;;3.47;;
79330;SDS011;68797;49.782;19.054;2023-07-22T09:40:16;4.40;;;3.20;;
79330;SDS011;68797;49.782;19.054;2023-07-22T09:42:50;4.22;;;3.10;;
79330;SDS011;68797;49.782;19.054;2023-07-22T09:45:25;4.03;;;3.42;;
79330;SDS011;68797;49.782;19.054;2023-07-22T09:48:01;4.30;;;2.97;;
79330;SDS011;68797;49.782;19.054;2023-07-22T09:50:32;4.28;;;3.13;;
79330;SDS011;68797;49.782;19.054;2023-07-22T09:53:08;5.13;;;3.58;;
79330;SDS011;68797;49.782;19.054;2023-07-22T09:55:50;5.53;;;3.13;;
79330;SDS011;68797;49.782;19.054;2023-07-22T09:58:20;4.82;;;3.35;;
79330;SDS011;68797;49.782;19.054;2023-07-22T10:01:23;4.95;;;3.25;;
79330;SDS011;68797;49.782;19.054;2023-07-22T10:03:58;4.35;;;3.08;;
79330;SDS011;68797;49.782;19.054;2023-07-22T10:06:44;5.85;;;3.30;;
79330;SDS011;68797;49.782;19.054;2023-07-22T10:09:16;4.15;;;3.25;;
79330;SDS011;68797;49.782;19.054;2023-07-22T10:11:49;4.65;;;3.20;;
79330;SDS011;68797;49.782;19.054;2023-07-22T10:14:32;3.60;;;3.03;;
79330;SDS011;68797;49.782;19.054;2023-07-22T10:17:23;4.38;;;3.38;;
79330;SDS011;68797;49.782;19.054;2023-07-22T10:20:03;3.90;;;3.22;;
79330;SDS011;68797;49.782;19.054;2023-07-22T10:22:35;5.65;;;3.38;;
79330;SDS011;68797;49.782;19.054;2023-07-22T10:25:21;6.55;;;3.72;;
79330;SDS011;68797;49.782;19.054;2023-07-22T10:28:09;6.13;;;3.22;;
79330;SDS011;68797;49.782;19.054;2023-07-22T10:30:41;4.72;;;3.58;;
79330;SDS011;68797;49.782;19.054;2023-07-22T10:33:39;4.35;;;3.58;;
79330;SDS011;68797;49.782;19.054;2023-07-22T10:36:28;5.45;;;3.45;;
79330;SDS011;68797;49.782;19.054;2023-07-22T10:39:25;6.03;;;3.50;;
79330;SDS011;68797;49.782;19.054;2023-07-22T10:42:04;10.27;;;3.58;;
79330;SDS011;68797;49.782;19.054;2023-07-22T10:44:38;7.60;;;3.70;;
79330;SDS011;68797;49.782;19.054;2023-07-22T10:47:38;5.00;;;3.75;;
79330;SDS011;68797;49.782;19.054;2023-07-22T10:50:09;3.92;;;3.53;;
79330;SDS011;68797;49.782;19.054;2023-07-22T10:52:58;6.18;;;4.28;;
79330;SDS011;68797;49.782;19.054;2023-07-22T10:56:01;6.07;;;3.92;;
79330;SDS011;68797;49.782;19.054;2023-07-22T10:58:56;5.78;;;3.50;;
79330;SDS011;68797;49.782;19.054;2023-07-22T11:01:43;4.32;;;3.60;;
79330;SDS011;68797;49.782;19.054;2023-07-22T11:04:25;5.28;;;4.15;;
79330;SDS011;68797;49.782;19.054;2023-07-22T11:07:13;5.22;;;4.32;;
79330;SDS011;68797;49.782;19.054;2023-07-22T11:10:20;5.88;;;3.75;;
79330;SDS011;68797;49.782;19.054;2023-07-22T11:12:55;4.60;;;3.65;;
79330;SDS011;68797;49.782;19.054;2023-07-22T11:15:50;5.43;;;3.72;;
79330;SDS011;68797;49.782;19.054;2023-07-22T11:18:41;4.80;;;3.85;;
79330;SDS011;68797;49.782;19.054;2023-07-22T11:21:26;4.60;;;3.90;;
79330;SDS011;68797;49.782;19.054;2023-07-22T11:23:58;7.60;;;3.90;;
79330;SDS011;68797;49.782;19.054;2023-07-22T11:26:41;4.47;;;3.53;;
79330;SDS011;68797;49.782;19.054;2023-07-22T11:29:48;4.95;;;3.97;;
79330;SDS011;68797;49.782;19.054;2023-07-22T11:32:28;4.93;;;3.40;;
79330;SDS011;68797;49.782;19.054;2023-07-22T11:35:03;5.50;;;3.40;;
79330;SDS011;68797;49.782;19.054;2023-07-22T11:37:33;4.95;;;3.38;;
79330;SDS011;68797;49.782;19.054;2023-07-22T11:40:06;7.28;;;4.13;;
79330;SDS011;68797;49.782;19.054;2023-07-22T11:42:55;4.22;;;3.25;;
79330;SDS011;68797;49.782;19.054;2023-07-22T11:45:37;4.45;;;3.63;;
79330;SDS011;68797;49.782;19.054;2023-07-22T11:48:20;4.03;;;3.47;;
79330;SDS011;68797;49.782;19.054;2023-07-22T11:53:40;4.60;;;3.63;;
79330;SDS011;68797;49.782;19.054;2023-07-22T11:56:22;4.97;;;3.22;;
79330;SDS011;68797;49.782;19.054;2023-07-22T11:59:04;6.97;;;3.67;;
79330;SDS011;68797;49.782;19.054;2023-07-22T12:01:49;3.08;;;2.78;;
79330;SDS011;68797;49.782;19.054;2023-07-22T12:05:08;4.57;;;2.92;;
79330;SDS011;68797;49.782;19.054;2023-07-22T12:07:44;3.95;;;2.90;;
79330;SDS011;68797;49.782;19.054;2023-07-22T12:10:15;7.93;;;3.65;;
79330;SDS011;68797;49.782;19.054;2023-07-22T12:12:51;4.43;;;3.20;;
79330;SDS011;68797;49.782;19.054;2023-07-22T12:15:19;3.65;;;3.05;;
79330;SDS011;68797;49.782;19.054;2023-07-22T12:18:15;4.45;;;2.97;;
79330;SDS011;68797;49.782;19.054;2023-07-22T12:21:12;4.68;;;2.95;;
79330;SDS011;68797;49.782;19.054;2023-07-22T12:23:48;4.68;;;3.42;;
79330;SDS011;68797;49.782;19.054;2023-07-22T12:26:29;4.07;;;3.00;;
79330;SDS011;68797;49.782;19.054;2023-07-22T12:29:01;13.25;;;3.78;;
79330;SDS011;68797;49.782;19.054;2023-07-22T12:31:43;4.82;;;3.65;;
79330;SDS011;68797;49.782;19.054;2023-07-22T12:34:25;7.20;;;3.95;;
79330;SDS011;68797;49.782;19.054;2023-07-22T12:36:54;6.53;;;3.90;;
79330;SDS011;68797;49.782;19.054;2023-07-22T12:39:34;5.85;;;3.75;;
79330;SDS011;68797;49.782;19.054;2023-07-22T12:42:21;4.93;;;3.75;;
79330;SDS011;68797;49.782;19.054;2023-07-22T12:44:54;6.00;;;3.70;;
79330;SDS011;68797;49.782;19.054;2023-07-22T12:47:40;5.75;;;4.45;;
79330;SDS011;68797;49.782;19.054;2023-07-22T12:50:24;4.53;;;3.75;;
79330;SDS011;68797;49.782;19.054;2023-07-22T12:53:08;5.40;;;4.18;;
79330;SDS011;68797;49.782;19.054;2023-07-22T12:55:52;5.57;;;4.03;;
79330;SDS011;68797;49.782;19.054;2023-07-22T12:58:23;6.40;;;4.43;;
79330;SDS011;68797;49.782;19.054;2023-07-22T13:01:19;5.38;;;4.28;;
79330;SDS011;68797;49.782;19.054;2023-07-22T13:03:55;6.25;;;4.00;;
79330;SDS011;68797;49.782;19.054;2023-07-22T13:06:38;6.93;;;4.97;;
79330;SDS011;68797;49.782;19.054;2023-07-22T13:09:19;5.70;;;4.10;;
79330;SDS011;68797;49.782;19.054;2023-07-22T13:12:12;5.75;;;4.30;;
79330;SDS011;68797;49.782;19.054;2023-07-22T13:14:48;4.97;;;4.28;;
79330;SDS011;68797;49.782;19.054;2023-07-22T13:17:42;6.85;;;4.13;;
79330;SDS011;68797;49.782;19.054;2023-07-22T13:20:16;7.03;;;4.18;;
79330;SDS011;68797;49.782;19.054;2023-07-22T13:23:07;6.75;;;3.50;;
79330;SDS011;68797;49.782;19.054;2023-07-22T13:25:52;5.43;;;4.60;;
79330;SDS011;68797;49.782;19.054;2023-07-22T13:28:31;4.82;;;3.63;;
79330;SDS011;68797;49.782;19.054;2023-07-22T13:31:07;5.28;;;3.83;;
79330;SDS011;68797;49.782;19.054;2023-07-22T13:33:42;5.53;;;4.00;;
79330;SDS011;68797;49.782;19.054;2023-07-22T13:36:13;4.47;;;3.47;;
79330;SDS011;68797;49.782;19.054;2023-07-22T13:39:03;5.47;;;4.13;;
79330;SDS011;68797;49.782;19.054;2023-07-22T13:41:36;5.22;;;3.65;;
79330;SDS011;68797;49.782;19.054;2023-07-22T13:44:29;5.32;;;3.97;;
79330;SDS011;68797;49.782;19.054;2023-07-22T13:47:13;6.00;;;3.55;;
79330;SDS011;68797;49.782;19.054;2023-07-22T13:49:48;4.80;;;3.65;;
79330;SDS011;68797;49.782;19.054;2023-07-22T13:52:42;4.93;;;3.58;;
79330;SDS011;68797;49.782;19.054;2023-07-22T13:55:46;4.45;;;3.30;;
79330;SDS011;68797;49.782;19.054;2023-07-22T13:58:23;4.10;;;3.35;;
79330;SDS011;68797;49.782;19.054;2023-07-22T14:01:00;4.78;;;3.17;;
79330;SDS011;68797;49.782;19.054;2023-07-22T14:03:35;4.40;;;3.40;;
79330;SDS011;68797;49.782;19.054;2023-07-22T14:06:45;4.00;;;2.83;;
79330;SDS011;68797;49.782;19.054;2023-07-22T14:09:35;6.22;;;3.38;;
79330;SDS011;68797;49.782;19.054;2023-07-22T14:12:20;5.35;;;3.78;;
79330;SDS011;68797;49.782;19.054;2023-07-22T14:15:27;4.47;;;3.60;;
79330;SDS011;68797;49.782;19.054;2023-07-22T14:18:12;4.93;;;3.53;;
79330;SDS011;68797;49.782;19.054;2023-07-22T14:20:57;7.18;;;3.83;;
79330;SDS011;68797;49.782;19.054;2023-07-22T14:23:45;5.88;;;4.03;;
79330;SDS011;68797;49.782;19.054;2023-07-22T14:26:46;5.13;;;3.55;;
79330;SDS011;68797;49.782;19.054;2023-07-22T14:29:20;6.10;;;4.18;;
79330;SDS011;68797;49.782;19.054;2023-07-22T14:31:58;6.18;;;3.83;;
79330;SDS011;68797;49.782;19.054;2023-07-22T14:34:36;8.50;;;3.90;;
79330;SDS011;68797;49.782;19.054;2023-07-22T14:37:08;5.90;;;4.03;;
79330;SDS011;68797;49.782;19.054;2023-07-22T14:39:51;6.53;;;4.03;;
79330;SDS011;68797;49.782;19.054;2023-07-22T14:42:22;5.90;;;4.10;;
79330;SDS011;68797;49.782;19.054;2023-07-22T14:45:07;5.43;;;3.80;;
79330;SDS011;68797;49.782;19.054;2023-07-22T14:47:51;5.43;;;4.28;;
79330;SDS011;68797;49.782;19.054;2023-07-22T14:50:29;7.15;;;3.80;;
79330;SDS011;68797;49.782;19.054;2023-07-22T14:53:24;6.38;;;3.78;;
79330;SDS011;68797;49.782;19.054;2023-07-22T14:56:13;8.30;;;5.43;;
79330;SDS011;68797;49.782;19.054;2023-07-22T14:58:55;11.32;;;4.90;;
79330;SDS011;68797;49.782;19.054;2023-07-22T15:01:28;5.82;;;3.92;;
79330;SDS011;68797;49.782;19.054;2023-07-22T15:04:23;5.43;;;3.78;;
79330;SDS011;68797;49.782;19.054;2023-07-22T15:07:15;5.13;;;3.22;;
79330;SDS011;68797;49.782;19.054;2023-07-22T15:10:08;5.82;;;3.33;;
79330;SDS011;68797;49.782;19.054;2023-07-22T15:13:04;5.05;;;4.28;;
79330;SDS011;68797;49.782;19.054;2023-07-22T15:15:42;6.57;;;3.90;;
79330;SDS011;68797;49.782;19.054;2023-07-22T15:18:15;5.93;;;3.63;;
79330;SDS011;68797;49.782;19.054;2023-07-22T15:21:11;6.05;;;4.30;;
79330;SDS011;68797;49.782;19.054;2023-07-22T15:24:12;4.80;;;3.22;;
79330;SDS011;68797;49.782;19.054;2023-07-22T15:26:46;8.52;;;4.70;;
79330;SDS011;68797;49.782;19.054;2023-07-22T15:29:33;8.38;;;5.80;;
79330;SDS011;68797;49.782;19.054;2023-07-22T15:35:13;9.18;;;5.10;;
79330;SDS011;68797;49.782;19.054;2023-07-22T15:37:56;6.05;;;4.25;;
79330;SDS011;68797;49.782;19.054;2023-07-22T15:40:47;5.28;;;3.75;;
79330;SDS011;68797;49.782;19.054;2023-07-22T15:43:22;4.22;;;3.40;;
79330;SDS011;68797;49.782;19.054;2023-07-22T15:46:21;4.32;;;3.58;;
79330;SDS011;68797;49.782;19.054;2023-07-22T15:48:53;8.32;;;4.57;;
79330;SDS011;68797;49.782;19.054;2023-07-22T15:51:44;5.40;;;3.50;;